createdAt,value
2022-11-12T00:00:22.377Z,16.00
2022-11-12T00:03:27.384Z,16.00
2022-11-12T00:06:26.499Z,16.00
2022-11-12T00:09:31.398Z,16.00
2022-11-12T00:12:29.523Z,16.00
2022-11-12T00:15:34.386Z,16.00
2022-11-12T00:18:39.390Z,15.90
2022-11-12T00:21:44.389Z,15.90
2022-11-12T00:24:43.435Z,15.90
2022-11-12T00:27:48.399Z,15.90
2022-11-12T00:30:54.384Z,15.90
2022-11-12T00:33:59.395Z,15.90
2022-11-12T00:36:58.529Z,15.90
2022-11-12T00:40:03.393Z,15.90
2022-11-12T00:43:08.380Z,15.90
2022-11-12T00:46:14.396Z,15.80
2022-11-12T00:49:12.428Z,15.80
2022-11-12T00:52:17.384Z,15.80
2022-11-12T00:55:15.436Z,15.70
2022-11-12T00:58:21.371Z,15.70
2022-11-12T01:01:21.476Z,15.70
2022-11-12T01:04:26.384Z,15.70
2022-11-12T01:07:24.435Z,15.60
2022-11-12T01:10:29.380Z,15.60
2022-11-12T01:13:28.475Z,15.60
2022-11-12T01:16:43.418Z,15.60
2022-11-12T01:19:41.441Z,15.60
2022-11-12T01:22:47.380Z,15.50
2022-11-12T01:25:46.473Z,15.50
2022-11-12T01:28:51.379Z,15.50
2022-11-12T01:31:49.444Z,15.50
2022-11-12T01:34:54.399Z,15.40
2022-11-12T01:38:00.397Z,15.40
2022-11-12T01:40:58.903Z,15.40
2022-11-12T01:44:43.405Z,15.30
2022-11-12T01:47:44.413Z,15.30
2022-11-12T01:50:54.369Z,15.30
2022-11-12T01:54:03.397Z,15.30
2022-11-12T01:57:11.379Z,15.30
2022-11-12T02:00:12.044Z,15.30
2022-11-12T02:03:22.372Z,15.20
2022-11-12T02:06:27.392Z,15.20
2022-11-12T02:09:26.527Z,15.10
2022-11-12T02:12:50.396Z,15.10
2022-11-12T02:15:49.479Z,15.10
2022-11-12T02:18:54.389Z,15.10
2022-11-12T02:22:00.374Z,15.10
2022-11-12T02:24:58.912Z,15.10
2022-11-12T02:28:06.380Z,15.00
2022-11-12T02:31:18.441Z,15.00
2022-11-12T02:34:16.884Z,15.00
2022-11-12T02:37:22.423Z,15.00
2022-11-12T02:40:21.070Z,14.90
2022-11-12T02:43:26.413Z,15.00
2022-11-12T02:46:24.912Z,14.90
2022-11-12T02:49:31.387Z,14.90
2022-11-12T02:52:29.883Z,14.90
2022-11-12T02:55:35.375Z,14.90
2022-11-12T02:58:40.417Z,15.00
2022-11-12T03:01:39.437Z,15.00
2022-11-12T03:04:49.173Z,15.00
2022-11-12T03:07:55.429Z,15.00
2022-11-12T03:10:54.114Z,14.90
2022-11-12T03:13:59.372Z,15.00
2022-11-12T03:16:58.882Z,15.00
2022-11-12T03:20:04.374Z,15.00
2022-11-12T03:23:12.552Z,15.00
2022-11-12T03:26:11.478Z,14.90
2022-11-12T03:29:16.401Z,14.90
2022-11-12T03:32:22.419Z,14.90
2022-11-12T03:35:21.919Z,14.90
2022-11-12T03:38:27.725Z,14.90
2022-11-12T03:41:32.386Z,14.80
2022-11-12T03:44:38.400Z,14.80
2022-11-12T03:47:36.860Z,14.80
2022-11-12T03:50:44.389Z,14.80
2022-11-12T03:53:43.862Z,14.70
2022-11-12T03:56:51.404Z,14.70
2022-11-12T03:59:56.391Z,14.70
2022-11-12T04:02:55.448Z,14.70
2022-11-12T04:06:19.381Z,14.70
2022-11-12T04:09:18.445Z,14.70
2022-11-12T04:12:41.393Z,14.70
2022-11-12T04:15:40.489Z,14.70
2022-11-12T04:19:08.390Z,14.70
2022-11-12T04:22:21.397Z,14.70
2022-11-12T04:25:45.393Z,14.70
2022-11-12T04:29:03.432Z,14.70
2022-11-12T04:32:08.379Z,14.70
2022-11-12T04:35:14.397Z,14.60
2022-11-12T04:38:20.380Z,14.60
2022-11-12T04:41:44.422Z,14.60
2022-11-12T04:45:03.797Z,14.60
2022-11-12T04:48:09.393Z,14.60
2022-11-12T04:51:34.394Z,14.60
2022-11-12T04:54:40.395Z,14.60
2022-11-12T04:57:38.944Z,14.60
2022-11-12T05:00:44.398Z,14.60
2022-11-12T05:03:42.885Z,14.60
2022-11-12T05:07:00.441Z,14.60
2022-11-12T05:10:06.379Z,14.60
2022-11-12T05:13:12.406Z,14.60
2022-11-12T05:16:17.378Z,14.60
2022-11-12T05:19:23.398Z,14.60
2022-11-12T05:22:42.543Z,14.60
2022-11-12T05:25:48.396Z,14.60
2022-11-12T05:28:54.392Z,14.60
2022-11-12T05:31:59.472Z,14.60
2022-11-12T05:34:58.405Z,14.60
2022-11-12T05:37:56.927Z,14.70
2022-11-12T05:41:01.387Z,14.70
2022-11-12T05:44:06.394Z,14.70
2022-11-12T05:47:12.397Z,14.70
2022-11-12T05:50:10.887Z,14.60
2022-11-12T05:53:15.404Z,14.60
2022-11-12T05:56:20.400Z,14.60
2022-11-12T05:59:20.476Z,14.60
2022-11-12T06:02:26.420Z,14.60
2022-11-12T06:05:25.477Z,14.50
2022-11-12T06:08:31.393Z,14.60
2022-11-12T06:11:29.469Z,14.50
2022-11-12T06:14:34.384Z,14.50
2022-11-12T06:17:40.382Z,14.50
2022-11-12T06:20:45.390Z,14.50
2022-11-12T06:24:08.394Z,14.50
2022-11-12T06:27:13.390Z,14.50
2022-11-12T06:30:13.571Z,14.50
2022-11-12T06:33:18.388Z,14.50
2022-11-12T06:36:18.441Z,14.50
2022-11-12T06:39:23.401Z,14.50
2022-11-12T06:42:22.450Z,14.50
2022-11-12T06:45:27.389Z,14.50
2022-11-12T06:48:27.018Z,14.50
2022-11-12T06:51:32.391Z,14.50
2022-11-12T06:54:31.484Z,14.50
2022-11-12T06:57:36.639Z,14.40
2022-11-12T07:00:35.485Z,14.40
2022-11-12T07:03:40.511Z,14.40
2022-11-12T07:06:40.493Z,14.40
2022-11-12T07:09:45.400Z,14.40
2022-11-12T07:12:47.876Z,14.40
2022-11-12T07:15:55.372Z,14.40
2022-11-12T07:18:55.452Z,14.40
2022-11-12T07:22:00.392Z,14.50
2022-11-12T07:25:00.863Z,14.60
2022-11-12T07:28:06.464Z,14.80
2022-11-12T07:31:20.390Z,15.00
2022-11-12T07:34:25.390Z,15.20
2022-11-12T07:37:31.408Z,15.40
2022-11-12T07:40:30.865Z,15.60
2022-11-12T07:43:35.584Z,15.70
2022-11-12T07:46:40.398Z,15.80
2022-11-12T07:49:39.460Z,15.90
2022-11-12T07:52:44.400Z,16.00
2022-11-12T07:55:43.730Z,16.10
2022-11-12T07:58:49.404Z,16.20
2022-11-12T08:01:48.531Z,16.30
2022-11-12T08:04:53.387Z,16.40
2022-11-12T08:07:59.575Z,16.50
2022-11-12T08:10:58.934Z,16.60
2022-11-12T08:14:05.384Z,16.60
2022-11-12T08:17:03.858Z,16.70
2022-11-12T08:20:09.390Z,16.70
2022-11-12T08:23:14.395Z,16.80
2022-11-12T08:26:15.436Z,16.80
2022-11-12T08:29:20.402Z,16.90
2022-11-12T08:32:25.426Z,16.90
2022-11-12T08:35:24.400Z,17.00
2022-11-12T08:38:22.938Z,17.10
2022-11-12T08:41:28.428Z,17.20
2022-11-12T08:44:33.387Z,17.40
2022-11-12T08:47:39.397Z,17.60
2022-11-12T08:50:44.408Z,17.80
2022-11-12T08:53:50.379Z,18.00
2022-11-12T08:56:48.966Z,18.20
2022-11-12T08:59:54.392Z,18.50
2022-11-12T09:02:52.868Z,18.80
2022-11-12T09:05:58.392Z,19.20
2022-11-12T09:08:56.961Z,19.50
2022-11-12T09:12:10.470Z,19.90
2022-11-12T09:18:36.408Z,20.50
2022-11-12T09:21:35.234Z,20.80
2022-11-12T09:24:40.431Z,21.10
2022-11-12T09:27:48.508Z,21.40
2022-11-12T09:31:00.396Z,21.60
2022-11-12T09:34:05.412Z,21.80
2022-11-12T09:37:11.407Z,21.80
2022-11-12T09:40:17.719Z,21.90
2022-11-12T09:43:30.408Z,22.00
2022-11-12T09:46:42.423Z,22.10
2022-11-12T09:50:03.463Z,22.10
2022-11-12T09:53:21.417Z,22.20
2022-11-12T09:56:22.519Z,22.30
2022-11-12T09:59:30.417Z,22.40
2022-11-12T10:02:57.421Z,22.40
2022-11-12T10:06:10.612Z,22.40
2022-11-12T10:09:22.455Z,22.40
2022-11-12T10:12:45.409Z,22.40
2022-11-12T10:16:38.402Z,22.40
2022-11-12T10:19:57.186Z,22.50
2022-11-12T10:23:23.408Z,22.60
2022-11-12T10:26:25.364Z,22.60
2022-11-12T10:29:53.405Z,22.70
2022-11-12T10:32:59.472Z,22.70
2022-11-12T10:35:59.417Z,22.50
2022-11-12T10:38:58.069Z,22.40
2022-11-12T10:42:19.399Z,22.20
2022-11-12T10:45:22.993Z,22.10
2022-11-12T10:48:43.420Z,22.00
2022-11-12T10:52:00.414Z,21.90
2022-11-12T10:55:30.481Z,21.80
2022-11-12T10:58:35.422Z,21.70
2022-11-12T11:01:45.507Z,21.70
2022-11-12T11:04:51.424Z,21.70
2022-11-12T11:07:57.143Z,21.60
2022-11-12T11:11:23.456Z,21.50
2022-11-12T11:14:40.629Z,21.40
2022-11-12T11:17:45.454Z,21.30
2022-11-12T11:21:01.475Z,21.30
2022-11-12T11:24:22.450Z,21.10
2022-11-12T11:27:40.464Z,21.10
2022-11-12T11:31:04.425Z,21.00
2022-11-12T11:34:48.421Z,20.90
2022-11-12T11:38:18.433Z,20.90
2022-11-12T11:42:00.399Z,20.80
2022-11-12T11:45:29.423Z,20.70
2022-11-12T11:48:42.538Z,20.60
2022-11-12T11:51:59.434Z,20.60
2022-11-12T11:55:13.460Z,20.60
2022-11-12T11:58:32.430Z,20.50
2022-11-12T12:01:30.580Z,20.40
2022-11-12T12:04:48.423Z,20.40
2022-11-12T12:08:15.518Z,20.50
2022-11-12T12:11:45.438Z,20.50
2022-11-12T12:15:08.478Z,20.60
2022-11-12T12:18:32.455Z,20.60
2022-11-12T12:21:32.092Z,20.60
2022-11-12T12:24:54.420Z,20.70
2022-11-12T12:28:04.472Z,20.70
2022-11-12T12:31:22.434Z,20.70
2022-11-12T12:34:40.416Z,20.80
2022-11-12T12:38:05.190Z,20.80
2022-11-12T12:41:16.442Z,20.80
2022-11-12T12:44:21.423Z,20.80
2022-11-12T12:47:21.591Z,20.80
2022-11-12T12:50:28.448Z,20.80
2022-11-12T12:53:36.594Z,20.80
2022-11-12T12:56:51.453Z,20.80
2022-11-12T12:59:50.463Z,20.80
2022-11-12T13:02:55.464Z,20.80
2022-11-12T13:06:13.553Z,20.80
2022-11-12T13:09:21.478Z,20.80
2022-11-12T13:12:23.512Z,20.80
2022-11-12T13:15:49.454Z,20.80
2022-11-12T13:18:48.483Z,20.90
2022-11-12T13:21:54.461Z,20.90
2022-11-12T13:25:24.451Z,20.90
2022-11-12T13:28:22.947Z,20.90
2022-11-12T13:31:42.483Z,20.90
2022-11-12T13:34:41.469Z,20.90
2022-11-12T13:37:47.438Z,20.90
2022-11-12T13:41:02.522Z,20.90
2022-11-12T13:44:03.484Z,20.80
2022-11-12T13:47:08.419Z,20.90
2022-11-12T13:50:08.492Z,20.80
2022-11-12T13:53:15.420Z,20.80
2022-11-12T13:56:19.496Z,20.80
2022-11-12T13:59:27.427Z,20.80
2022-11-12T14:02:30.553Z,20.80
2022-11-12T14:05:38.428Z,20.80
2022-11-12T14:09:02.427Z,20.80
2022-11-12T14:12:35.441Z,20.80
2022-11-12T14:15:53.488Z,20.70
2022-11-12T14:19:27.423Z,20.70
2022-11-12T14:22:34.470Z,20.70
2022-11-12T14:25:33.257Z,20.70
2022-11-12T14:28:42.439Z,20.60
2022-11-12T14:31:48.458Z,20.60
2022-11-12T14:34:47.923Z,20.60
2022-11-12T14:37:53.437Z,20.60
2022-11-12T14:41:02.131Z,20.60
2022-11-12T14:44:13.656Z,20.60
2022-11-12T14:47:18.453Z,20.50
2022-11-12T14:50:37.348Z,20.50
2022-11-12T14:53:45.346Z,20.50
2022-11-12T14:56:55.439Z,20.40
2022-11-12T15:00:00.456Z,20.40
2022-11-12T15:03:00.017Z,20.40
2022-11-12T15:06:16.457Z,20.40
2022-11-12T15:09:24.447Z,20.30
2022-11-12T15:12:32.460Z,20.30
2022-11-12T15:15:31.500Z,20.30
2022-11-12T15:18:37.460Z,20.30
2022-11-12T15:21:43.502Z,20.20
2022-11-12T15:24:51.482Z,20.20
2022-11-12T15:27:50.602Z,20.20
2022-11-12T15:31:14.454Z,20.20
2022-11-12T15:34:42.443Z,20.20
2022-11-12T15:37:49.431Z,20.10
2022-11-12T15:40:58.452Z,20.10
2022-11-12T15:43:57.355Z,20.10
2022-11-12T15:47:02.455Z,20.00
2022-11-12T15:50:07.462Z,20.00
2022-11-12T15:53:06.582Z,20.00
2022-11-12T15:56:18.486Z,20.00
2022-11-12T15:59:22.521Z,20.00
2022-11-12T16:02:27.443Z,20.00
2022-11-12T16:05:26.511Z,20.00
2022-11-12T16:08:31.462Z,19.90
2022-11-12T16:11:43.477Z,19.90
2022-11-12T16:14:42.324Z,19.90
2022-11-12T16:17:46.460Z,19.90
2022-11-12T16:20:45.581Z,19.80
2022-11-12T16:23:51.463Z,19.80
2022-11-12T16:26:49.995Z,19.80
2022-11-12T16:29:55.457Z,19.80
2022-11-12T16:33:09.465Z,19.80
2022-11-12T16:36:14.506Z,19.80
2022-11-12T16:39:19.467Z,19.70
2022-11-12T16:42:17.936Z,19.80
2022-11-12T16:45:23.468Z,19.80
2022-11-12T16:48:29.477Z,19.70
2022-11-12T16:51:29.507Z,19.70
2022-11-12T16:54:34.448Z,19.80
2022-11-12T16:57:40.450Z,19.70
2022-11-12T17:00:39.448Z,19.80
2022-11-12T17:03:44.469Z,19.80
2022-11-12T17:06:44.539Z,19.80
2022-11-12T17:09:50.463Z,19.70
2022-11-12T17:12:48.957Z,19.80
2022-11-12T17:15:54.485Z,19.80
2022-11-12T17:18:54.479Z,19.80
2022-11-12T17:22:00.472Z,19.80
2022-11-12T17:24:58.980Z,19.80
2022-11-12T17:28:04.471Z,19.70
2022-11-12T17:31:31.485Z,19.70
2022-11-12T17:34:36.454Z,19.70
2022-11-12T17:37:35.532Z,19.70
2022-11-12T17:40:40.451Z,19.70
2022-11-12T17:43:39.541Z,19.70
2022-11-12T17:46:44.451Z,19.70
2022-11-12T17:49:42.638Z,19.60
2022-11-12T17:52:47.455Z,19.60
2022-11-12T17:55:46.604Z,19.60
2022-11-12T17:58:52.463Z,19.60
2022-11-12T18:01:51.541Z,19.60
2022-11-12T18:04:56.469Z,19.60
2022-11-12T18:07:54.588Z,19.60
2022-11-12T18:10:59.461Z,19.60
2022-11-12T18:13:58.515Z,19.50
2022-11-12T18:17:05.469Z,19.50
2022-11-12T18:20:11.455Z,19.50
2022-11-12T18:23:11.110Z,19.50
2022-11-12T18:26:15.455Z,19.50
2022-11-12T18:29:20.477Z,19.50
2022-11-12T18:32:20.527Z,19.40
2022-11-12T18:35:29.643Z,19.40
2022-11-12T18:38:27.507Z,19.40
2022-11-12T18:41:33.482Z,19.40
2022-11-12T18:44:32.519Z,19.40
2022-11-12T18:47:38.485Z,19.40
2022-11-12T18:50:44.499Z,19.40
2022-11-12T18:53:50.738Z,19.40
2022-11-12T18:56:55.779Z,19.30
2022-11-12T18:59:55.097Z,19.30
2022-11-12T19:03:00.466Z,19.30
2022-11-12T19:06:00.629Z,19.30
2022-11-12T19:09:17.478Z,19.30
2022-11-12T19:12:22.465Z,19.30
2022-11-12T19:15:28.478Z,19.20
2022-11-12T19:18:27.357Z,19.30
2022-11-12T19:21:36.648Z,19.20
2022-11-12T19:24:35.003Z,19.20
2022-11-12T19:27:39.484Z,19.20
2022-11-12T19:30:44.478Z,19.20
2022-11-12T19:33:49.550Z,19.20
2022-11-12T19:36:56.600Z,19.20
2022-11-12T19:40:07.758Z,19.20
2022-11-12T19:43:13.473Z,19.20
2022-11-12T19:46:12.311Z,19.20
2022-11-12T19:49:17.468Z,19.10
2022-11-12T19:52:23.475Z,19.10
2022-11-12T19:55:29.655Z,19.10
2022-11-12T19:58:35.481Z,19.10
2022-11-12T20:01:40.574Z,19.10
2022-11-12T20:04:45.721Z,19.10
2022-11-12T20:07:44.548Z,19.00
2022-11-12T20:10:49.465Z,19.10
2022-11-12T20:13:55.477Z,19.00
2022-11-12T20:16:53.955Z,19.00
2022-11-12T20:19:58.488Z,19.00
2022-11-12T20:23:04.466Z,19.00
2022-11-12T20:26:09.928Z,19.00
2022-11-12T20:29:14.572Z,19.00
2022-11-12T20:32:26.612Z,19.00
2022-11-12T20:35:31.714Z,18.90
2022-11-12T20:38:30.826Z,18.90
2022-11-12T20:41:37.459Z,18.90
2022-11-12T20:44:43.620Z,18.90
2022-11-12T20:47:42.002Z,18.90
2022-11-12T20:51:09.357Z,18.90
2022-11-12T20:54:06.116Z,18.90
2022-11-12T20:57:11.487Z,18.90
2022-11-12T21:00:22.919Z,18.90
2022-11-12T21:03:28.496Z,18.80
2022-11-12T21:06:35.660Z,18.80
2022-11-12T21:09:41.467Z,18.80
2022-11-12T21:12:40.126Z,18.80
2022-11-12T21:15:45.463Z,18.80
2022-11-12T21:18:44.203Z,18.80
2022-11-12T21:21:49.466Z,18.80
2022-11-12T21:24:54.504Z,18.80
2022-11-12T21:28:00.492Z,18.80
2022-11-12T21:31:11.496Z,18.70
2022-11-12T21:34:17.485Z,18.60
2022-11-12T21:37:22.506Z,18.50
2022-11-12T21:40:27.490Z,18.40
2022-11-12T21:43:26.998Z,18.20
2022-11-12T21:46:42.509Z,18.10
2022-11-12T21:49:47.492Z,18.10
2022-11-12T21:52:46.541Z,18.00
2022-11-12T21:55:51.489Z,17.90
2022-11-12T21:58:51.546Z,17.90
2022-11-12T22:01:56.513Z,17.80
2022-11-12T22:05:01.514Z,17.80
2022-11-12T22:08:06.504Z,17.80
2022-11-12T22:11:27.504Z,17.60
2022-11-12T22:14:32.466Z,17.60
2022-11-12T22:17:38.492Z,17.50
2022-11-12T22:20:36.982Z,17.50
2022-11-12T22:23:42.504Z,17.40
2022-11-12T22:26:40.964Z,17.40
2022-11-12T22:29:46.488Z,17.30
2022-11-12T22:32:51.486Z,17.30
2022-11-12T22:35:56.492Z,17.30
2022-11-12T22:39:02.485Z,17.20
2022-11-12T22:42:08.567Z,17.20
2022-11-12T22:45:14.484Z,17.20
2022-11-12T22:48:13.568Z,17.20
2022-11-12T22:51:24.489Z,17.20
2022-11-12T22:54:30.490Z,17.10
2022-11-12T22:57:28.978Z,17.10
2022-11-12T23:00:43.494Z,17.10
2022-11-12T23:03:42.499Z,17.10
2022-11-12T23:06:41.043Z,17.00
2022-11-12T23:09:46.495Z,17.00
2022-11-12T23:12:52.476Z,16.90
2022-11-12T23:15:52.534Z,16.90
2022-11-12T23:18:59.480Z,16.90
2022-11-12T23:21:57.542Z,16.80
2022-11-12T23:25:02.490Z,16.80
2022-11-12T23:28:00.593Z,16.80
2022-11-12T23:31:06.504Z,16.80
2022-11-12T23:34:19.513Z,16.70
2022-11-12T23:37:17.984Z,16.70
2022-11-12T23:40:27.165Z,16.60
2022-11-12T23:43:35.492Z,16.60
2022-11-12T23:46:41.499Z,16.60
2022-11-12T23:49:39.989Z,16.60
2022-11-12T23:52:45.500Z,16.50
2022-11-12T23:55:44.630Z,16.50
2022-11-12T23:58:51.480Z,16.50
